createdAt,value
2023-04-07T00:01:29.735Z,48.22
2023-04-07T00:03:56.496Z,47.97
2023-04-07T00:06:23.272Z,48.11
2023-04-07T00:08:49.663Z,48.06
2023-04-07T00:11:16.062Z,48.04
2023-04-07T00:13:42.439Z,48.25
2023-04-07T00:16:09.036Z,48.51
2023-04-07T00:18:35.512Z,48.55
2023-04-07T00:21:01.846Z,48.42
2023-04-07T00:23:28.276Z,48.05
2023-04-07T00:25:54.665Z,48.22
2023-04-07T00:28:20.994Z,48.28
2023-04-07T00:30:47.318Z,48.25
2023-04-07T00:33:13.657Z,48.16
2023-04-07T00:35:40.088Z,47.73
2023-04-07T00:38:06.630Z,48.13
2023-04-07T00:40:33.047Z,48.11
2023-04-07T00:42:59.397Z,48.20
2023-04-07T00:45:25.816Z,48.22
2023-04-07T00:47:52.450Z,48.18
2023-04-07T00:50:18.881Z,48.11
2023-04-07T00:52:45.916Z,48.08
2023-04-07T00:55:12.242Z,48.52
2023-04-07T00:57:38.635Z,48.61
2023-04-07T01:00:06.701Z,48.38
2023-04-07T01:02:48.313Z,48.20
2023-04-07T01:05:20.804Z,47.84
2023-04-07T01:08:09.384Z,47.63
2023-04-07T01:10:39.312Z,47.60
2023-04-07T01:13:13.106Z,48.11
2023-04-07T01:15:40.650Z,48.04
2023-04-07T01:18:13.775Z,48.20
2023-04-07T01:20:43.344Z,48.50
2023-04-07T01:23:19.926Z,48.48
2023-04-07T01:26:08.453Z,48.91
2023-04-07T01:28:56.380Z,49.13
2023-04-07T01:31:23.420Z,49.82
2023-04-07T01:33:51.292Z,49.42
2023-04-07T01:36:19.056Z,48.93
2023-04-07T01:38:46.381Z,49.11
2023-04-07T01:41:16.489Z,48.96
2023-04-07T01:43:44.449Z,49.59
2023-04-07T01:46:11.477Z,49.87
2023-04-07T01:48:39.585Z,49.77
2023-04-07T01:51:07.100Z,49.71
2023-04-07T01:53:37.702Z,50.23
2023-04-07T01:56:05.693Z,50.67
2023-04-07T01:58:32.470Z,50.24
2023-04-07T02:00:58.880Z,50.38
2023-04-07T02:03:35.877Z,49.78
2023-04-07T02:06:08.014Z,50.10
2023-04-07T02:08:36.598Z,49.98
2023-04-07T02:11:05.456Z,50.02
2023-04-07T02:13:33.916Z,50.33
2023-04-07T02:16:02.335Z,50.37
2023-04-07T02:18:32.166Z,50.31
2023-04-07T02:21:00.633Z,50.26
2023-04-07T02:23:27.303Z,50.49
2023-04-07T02:25:57.407Z,50.84
2023-04-07T02:28:23.979Z,50.97
2023-04-07T02:30:50.311Z,51.25
2023-04-07T02:33:16.688Z,51.60
2023-04-07T02:35:43.062Z,51.41
2023-04-07T02:38:09.397Z,51.14
2023-04-07T02:40:36.811Z,50.92
2023-04-07T02:43:05.023Z,50.51
2023-04-07T02:45:31.635Z,49.98
2023-04-07T02:47:58.053Z,50.02
2023-04-07T02:50:26.044Z,50.12
2023-04-07T02:52:52.432Z,49.51
2023-04-07T02:55:18.902Z,48.85
2023-04-07T02:57:45.294Z,49.50
2023-04-07T03:00:12.260Z,50.19
2023-04-07T03:02:38.706Z,51.53
2023-04-07T03:05:05.426Z,51.28
2023-04-07T03:07:31.818Z,51.43
2023-04-07T03:09:58.123Z,51.31
2023-04-07T03:12:24.453Z,51.80
2023-04-07T03:14:50.889Z,51.46
2023-04-07T03:17:17.328Z,51.45
2023-04-07T03:19:43.651Z,51.41
2023-04-07T03:22:10.210Z,51.19
2023-04-07T03:24:36.575Z,51.21
2023-04-07T03:27:03.532Z,51.13
2023-04-07T03:29:29.892Z,52.07
2023-04-07T03:31:56.800Z,52.32
2023-04-07T03:34:23.215Z,52.17
2023-04-07T03:36:49.557Z,52.34
2023-04-07T03:39:16.329Z,52.92
2023-04-07T03:41:42.709Z,52.97
2023-04-07T03:44:09.149Z,52.89
2023-04-07T03:46:35.603Z,52.85
2023-04-07T03:49:02.101Z,53.07
2023-04-07T03:51:28.496Z,53.05
2023-04-07T03:53:55.060Z,52.68
2023-04-07T03:56:22.410Z,52.76
2023-04-07T03:58:49.211Z,52.63
2023-04-07T04:01:16.047Z,52.54
2023-04-07T04:03:42.872Z,52.80
2023-04-07T04:06:09.436Z,53.12
2023-04-07T04:08:35.841Z,53.09
2023-04-07T04:11:02.271Z,52.82
2023-04-07T04:13:28.625Z,52.53
2023-04-07T04:15:55.086Z,52.67
2023-04-07T04:18:21.524Z,52.74
2023-04-07T04:20:48.706Z,52.88
2023-04-07T04:23:15.992Z,52.98
2023-04-07T04:25:42.323Z,52.97
2023-04-07T04:28:08.630Z,53.09
2023-04-07T04:30:35.184Z,53.31
2023-04-07T04:33:01.610Z,53.32
2023-04-07T04:35:27.998Z,53.61
2023-04-07T04:37:54.557Z,53.48
2023-04-07T04:40:21.066Z,53.28
2023-04-07T04:42:47.457Z,53.21
2023-04-07T04:45:13.805Z,53.22
2023-04-07T04:47:40.443Z,53.69
2023-04-07T04:50:07.671Z,53.54
2023-04-07T04:52:34.460Z,53.34
2023-04-07T04:55:01.041Z,53.48
2023-04-07T04:57:27.362Z,53.22
2023-04-07T04:59:53.705Z,53.54
2023-04-07T05:02:20.629Z,53.30
2023-04-07T05:04:47.118Z,53.27
2023-04-07T05:07:13.551Z,53.60
2023-04-07T05:09:39.916Z,53.05
2023-04-07T05:12:06.662Z,52.41
2023-04-07T05:14:33.004Z,52.45
2023-04-07T05:17:00.725Z,52.52
2023-04-07T05:19:29.477Z,53.12
2023-04-07T05:21:56.254Z,53.27
2023-04-07T05:24:22.712Z,53.45
2023-04-07T05:26:49.057Z,53.87
2023-04-07T05:29:15.482Z,53.66
2023-04-07T05:31:41.865Z,54.39
2023-04-07T05:34:08.353Z,54.19
2023-04-07T05:36:35.199Z,53.71
2023-04-07T05:39:01.621Z,54.02
2023-04-07T05:41:27.970Z,55.18
2023-04-07T05:43:54.317Z,55.86
2023-04-07T05:46:20.905Z,56.98
2023-04-07T05:48:47.332Z,57.02
2023-04-07T05:51:13.754Z,56.37
2023-04-07T05:53:40.173Z,55.64
2023-04-07T05:56:07.106Z,55.46
2023-04-07T05:58:33.538Z,54.98
2023-04-07T06:00:59.893Z,54.58
2023-04-07T06:03:26.456Z,54.96
2023-04-07T06:05:52.876Z,54.89
2023-04-07T06:08:19.208Z,55.05
2023-04-07T06:10:46.654Z,54.85
2023-04-07T06:13:13.190Z,53.96
2023-04-07T06:15:39.526Z,54.21
2023-04-07T06:18:06.048Z,54.38
2023-04-07T06:20:32.429Z,54.81
2023-04-07T06:22:58.839Z,54.61
2023-04-07T06:25:25.201Z,54.54
2023-04-07T06:27:51.707Z,54.52
2023-04-07T06:30:18.160Z,54.92
2023-04-07T06:32:44.506Z,57.43
2023-04-07T06:35:11.091Z,56.60
2023-04-07T06:37:39.090Z,57.04
2023-04-07T06:40:07.383Z,56.75
2023-04-07T06:42:33.702Z,57.13
2023-04-07T06:45:00.049Z,56.69
2023-04-07T06:47:26.576Z,57.55
2023-04-07T06:49:53.063Z,57.55
2023-04-07T06:52:19.386Z,57.62
2023-04-07T06:54:45.836Z,57.69
2023-04-07T06:57:12.205Z,57.29
2023-04-07T06:59:39.021Z,56.83
2023-04-07T07:02:07.348Z,56.24
2023-04-07T07:04:37.037Z,55.84
2023-04-07T07:07:03.504Z,55.71
2023-04-07T07:09:29.896Z,55.70
2023-04-07T07:11:56.244Z,55.25
2023-04-07T07:14:22.604Z,55.00
2023-04-07T07:16:48.956Z,54.89
2023-04-07T07:19:15.566Z,54.01
2023-04-07T07:21:41.954Z,53.69
2023-04-07T07:24:08.294Z,53.77
2023-04-07T07:26:34.646Z,53.33
2023-04-07T07:29:01.025Z,53.31
2023-04-07T07:31:27.448Z,53.20
2023-04-07T07:33:53.913Z,53.36
2023-04-07T07:36:20.362Z,53.21
2023-04-07T07:38:46.694Z,52.65
2023-04-07T07:41:13.051Z,53.49
2023-04-07T07:43:39.374Z,53.57
2023-04-07T07:46:05.784Z,53.47
2023-04-07T07:48:32.169Z,53.44
2023-04-07T07:50:58.487Z,52.73
2023-04-07T07:53:25.044Z,52.45
2023-04-07T07:55:51.540Z,52.74
2023-04-07T07:58:17.942Z,52.49
2023-04-07T08:00:44.348Z,52.33
2023-04-07T08:03:10.763Z,52.17
2023-04-07T08:05:37.242Z,52.30
2023-04-07T08:08:03.633Z,52.30
2023-04-07T08:10:29.992Z,52.10
2023-04-07T08:12:56.508Z,53.96
2023-04-07T08:15:22.866Z,55.71
2023-04-07T08:17:49.282Z,57.49
2023-04-07T08:20:16.273Z,56.81
2023-04-07T08:22:42.951Z,57.21
2023-04-07T08:25:09.426Z,57.16
2023-04-07T08:27:35.784Z,57.40
2023-04-07T08:30:06.387Z,57.47
2023-04-07T08:32:43.462Z,57.10
2023-04-07T08:35:10.888Z,56.32
2023-04-07T08:37:41.370Z,57.50
2023-04-07T08:40:08.013Z,56.71
2023-04-07T08:42:35.260Z,56.44
2023-04-07T08:45:06.368Z,55.91
2023-04-07T08:47:34.161Z,55.78
2023-04-07T08:50:03.760Z,55.17
2023-04-07T08:52:56.548Z,55.24
2023-04-07T08:55:23.408Z,55.18
2023-04-07T08:57:51.181Z,54.69
2023-04-07T09:00:18.257Z,55.43
2023-04-07T09:02:45.594Z,54.88
2023-04-07T09:05:14.456Z,54.79
2023-04-07T09:07:42.999Z,55.32
2023-04-07T09:10:09.999Z,56.26
2023-04-07T09:12:36.489Z,55.47
2023-04-07T09:15:04.093Z,55.83
2023-04-07T09:17:30.665Z,56.38
2023-04-07T09:19:58.516Z,56.62
2023-04-07T09:22:42.834Z,56.18
2023-04-07T09:25:22.494Z,58.18
2023-04-07T09:28:00.522Z,59.45
2023-04-07T09:30:28.944Z,59.57
2023-04-07T09:32:56.009Z,61.61
2023-04-07T09:35:23.760Z,62.89
2023-04-07T09:38:09.489Z,63.77
2023-04-07T09:40:37.244Z,64.24
2023-04-07T09:43:05.467Z,65.86
2023-04-07T09:45:35.745Z,66.02
2023-04-07T09:48:07.637Z,66.19
2023-04-07T09:50:40.915Z,66.66
2023-04-07T09:53:07.875Z,67.20
2023-04-07T09:55:36.157Z,67.64
2023-04-07T09:58:04.510Z,67.08
2023-04-07T10:00:31.062Z,67.05
2023-04-07T10:02:58.232Z,66.82
2023-04-07T10:05:25.218Z,66.65
2023-04-07T10:07:52.415Z,66.62
2023-04-07T10:10:18.864Z,67.28
2023-04-07T10:12:45.524Z,66.88
2023-04-07T10:15:15.544Z,67.48
2023-04-07T10:17:49.595Z,67.54
2023-04-07T10:20:18.831Z,67.85
2023-04-07T10:22:48.357Z,67.74
2023-04-07T10:25:18.460Z,68.06
2023-04-07T10:28:04.473Z,67.84
2023-04-07T10:30:33.249Z,67.28
2023-04-07T10:32:59.851Z,67.43
2023-04-07T10:35:26.611Z,68.69
2023-04-07T10:38:08.151Z,68.45
2023-04-07T10:40:35.807Z,67.31
2023-04-07T10:43:02.850Z,66.76
2023-04-07T10:45:54.180Z,66.59
2023-04-07T10:48:21.787Z,66.98
2023-04-07T10:51:07.387Z,68.28
2023-04-07T10:53:34.728Z,68.09
2023-04-07T10:56:01.143Z,68.05
2023-04-07T10:58:31.664Z,67.68
2023-04-07T11:01:01.322Z,67.76
2023-04-07T11:03:29.873Z,68.32
2023-04-07T11:06:06.364Z,67.06
2023-04-07T11:08:36.946Z,67.44
2023-04-07T11:11:09.303Z,67.45
2023-04-07T11:13:48.009Z,67.98
2023-04-07T11:16:16.522Z,68.43
2023-04-07T11:18:43.931Z,68.49
2023-04-07T11:21:10.393Z,69.15
2023-04-07T11:23:40.806Z,68.08
2023-04-07T11:26:09.189Z,68.48
2023-04-07T11:28:44.888Z,67.90
2023-04-07T11:31:11.378Z,67.57
2023-04-07T11:33:39.533Z,68.29
2023-04-07T11:36:07.181Z,67.55
2023-04-07T11:38:38.494Z,67.60
2023-04-07T11:41:16.470Z,67.81
2023-04-07T11:43:43.036Z,67.26
2023-04-07T11:46:12.102Z,67.17
2023-04-07T11:48:43.294Z,67.35
2023-04-07T11:51:21.029Z,67.95
2023-04-07T11:53:48.036Z,68.26
2023-04-07T11:56:16.934Z,68.20
2023-04-07T11:58:55.870Z,68.60
2023-04-07T12:01:24.673Z,69.84
2023-04-07T12:03:59.221Z,70.28
2023-04-07T12:06:42.423Z,71.01
2023-04-07T12:09:26.489Z,71.11
2023-04-07T12:11:53.256Z,72.16
2023-04-07T12:14:19.864Z,72.46
2023-04-07T12:16:46.736Z,72.95
2023-04-07T12:19:13.127Z,73.37
2023-04-07T12:21:39.475Z,74.23
2023-04-07T12:24:05.820Z,74.40
2023-04-07T12:26:32.152Z,73.88
2023-04-07T12:29:04.871Z,73.06
2023-04-07T12:31:32.602Z,73.06
2023-04-07T12:33:59.209Z,73.98
2023-04-07T12:36:27.548Z,74.09
2023-04-07T12:38:54.539Z,73.25
2023-04-07T12:41:20.935Z,72.84
2023-04-07T12:43:47.336Z,73.10
2023-04-07T12:46:13.973Z,73.43
2023-04-07T12:48:40.335Z,74.06
2023-04-07T12:51:06.685Z,73.72
2023-04-07T12:53:33.029Z,73.19
2023-04-07T12:55:59.396Z,73.36
2023-04-07T12:58:26.714Z,74.22
2023-04-07T13:00:53.510Z,73.71
2023-04-07T13:03:20.089Z,74.34
2023-04-07T13:05:46.692Z,74.57
2023-04-07T13:08:13.328Z,75.65
2023-04-07T13:10:39.760Z,76.39
2023-04-07T13:13:06.152Z,76.33
2023-04-07T13:15:32.602Z,75.57
2023-04-07T13:17:59.008Z,74.73
2023-04-07T13:20:27.922Z,73.86
2023-04-07T13:23:03.711Z,73.42
2023-04-07T13:25:33.804Z,72.71
2023-04-07T13:28:00.312Z,73.74
2023-04-07T13:30:27.251Z,73.88
2023-04-07T13:32:54.058Z,72.59
2023-04-07T13:35:20.878Z,71.47
2023-04-07T13:37:47.204Z,71.40
2023-04-07T13:40:13.774Z,71.68
2023-04-07T13:42:40.188Z,72.20
2023-04-07T13:45:07.174Z,71.91
2023-04-07T13:47:34.445Z,71.13
2023-04-07T13:50:01.888Z,71.22
2023-04-07T13:52:28.647Z,71.53
2023-04-07T13:54:55.323Z,72.28
2023-04-07T13:57:21.796Z,72.18
2023-04-07T13:59:49.215Z,71.21
2023-04-07T14:02:15.760Z,70.83
2023-04-07T14:04:42.363Z,70.57
2023-04-07T14:07:08.788Z,69.78
2023-04-07T14:09:35.450Z,69.26
2023-04-07T14:12:01.830Z,68.95
2023-04-07T14:14:28.161Z,68.98
2023-04-07T14:16:54.758Z,68.19
2023-04-07T14:19:24.600Z,66.85
2023-04-07T14:21:51.450Z,67.20
2023-04-07T14:24:18.399Z,66.29
2023-04-07T14:26:45.427Z,67.05
2023-04-07T14:29:12.720Z,66.66
2023-04-07T14:31:39.299Z,66.29
2023-04-07T14:34:07.172Z,65.51
2023-04-07T14:36:33.657Z,65.61
2023-04-07T14:39:01.008Z,65.88
2023-04-07T14:41:27.846Z,66.72
2023-04-07T14:43:57.212Z,66.31
2023-04-07T14:46:23.951Z,65.64
2023-04-07T14:48:53.817Z,65.60
2023-04-07T14:51:21.840Z,65.79
2023-04-07T14:53:53.327Z,65.08
2023-04-07T14:56:21.207Z,65.28
2023-04-07T14:58:47.557Z,64.53
2023-04-07T15:01:13.960Z,63.56
2023-04-07T15:03:40.386Z,64.54
2023-04-07T15:06:08.639Z,64.04
2023-04-07T15:08:35.112Z,63.96
2023-04-07T15:11:04.572Z,63.14
2023-04-07T15:13:31.033Z,61.99
2023-04-07T15:16:06.158Z,61.25
2023-04-07T15:18:32.595Z,60.92
2023-04-07T15:20:58.981Z,61.03
2023-04-07T15:23:25.577Z,60.03
2023-04-07T15:25:55.986Z,60.93
2023-04-07T15:28:23.008Z,61.60
2023-04-07T15:30:49.361Z,62.10
2023-04-07T15:33:15.766Z,61.77
2023-04-07T15:35:43.315Z,61.25
2023-04-07T15:38:10.230Z,61.15
2023-04-07T15:40:37.897Z,61.93
2023-04-07T15:43:04.372Z,62.03
2023-04-07T15:45:30.703Z,62.07
2023-04-07T15:47:57.070Z,62.34
2023-04-07T15:50:23.682Z,62.70
2023-04-07T15:52:50.088Z,62.68
2023-04-07T15:55:16.679Z,62.92
2023-04-07T15:57:42.996Z,63.09
2023-04-07T16:00:09.679Z,64.24
2023-04-07T16:02:36.157Z,62.57
2023-04-07T16:05:03.060Z,62.72
2023-04-07T16:07:29.388Z,62.41
2023-04-07T16:09:55.805Z,62.58
2023-04-07T16:12:22.380Z,62.08
2023-04-07T16:14:50.164Z,63.60
2023-04-07T16:17:16.543Z,63.77
2023-04-07T16:19:43.895Z,63.39
2023-04-07T16:22:10.269Z,63.49
2023-04-07T16:24:36.608Z,64.07
2023-04-07T16:27:04.438Z,64.31
2023-04-07T16:29:31.005Z,65.20
2023-04-07T16:31:57.339Z,65.44
2023-04-07T16:34:23.754Z,66.13
2023-04-07T16:36:50.328Z,67.18
2023-04-07T16:39:18.180Z,67.89
2023-04-07T16:41:44.788Z,68.13
2023-04-07T16:44:11.254Z,67.73
2023-04-07T16:46:37.578Z,67.79
2023-04-07T16:49:03.914Z,67.47
2023-04-07T16:51:30.249Z,67.83
2023-04-07T16:53:56.571Z,67.75
2023-04-07T16:56:24.842Z,67.88
2023-04-07T16:58:51.483Z,67.65
2023-04-07T17:01:18.753Z,67.79
2023-04-07T17:03:48.098Z,67.32
2023-04-07T17:06:16.366Z,67.75
2023-04-07T17:08:43.703Z,67.73
2023-04-07T17:11:10.993Z,66.74
2023-04-07T17:13:37.595Z,66.81
2023-04-07T17:16:04.328Z,66.60
2023-04-07T17:18:32.250Z,66.39
2023-04-07T17:20:58.857Z,65.51
2023-04-07T17:23:25.436Z,64.22
2023-04-07T17:25:51.801Z,63.68
2023-04-07T17:28:18.135Z,63.68
2023-04-07T17:30:44.499Z,62.75
2023-04-07T17:33:12.107Z,63.84
2023-04-07T17:35:38.631Z,63.07
2023-04-07T17:38:05.416Z,63.46
2023-04-07T17:40:32.337Z,62.96
2023-04-07T17:42:59.958Z,62.95
2023-04-07T17:45:26.354Z,62.82
2023-04-07T17:47:52.917Z,62.43
2023-04-07T17:50:19.683Z,64.07
2023-04-07T17:52:46.106Z,63.03
2023-04-07T17:55:12.650Z,65.15
2023-04-07T17:57:40.441Z,65.74
2023-04-07T18:00:07.794Z,64.27
2023-04-07T18:02:34.640Z,64.00
2023-04-07T18:05:01.684Z,63.33
2023-04-07T18:07:29.255Z,63.34
2023-04-07T18:09:56.791Z,63.87
2023-04-07T18:12:23.508Z,63.96
2023-04-07T18:14:50.270Z,62.95
2023-04-07T18:17:16.674Z,63.01
2023-04-07T18:19:43.033Z,62.60
2023-04-07T18:22:12.114Z,63.10
2023-04-07T18:24:38.494Z,63.42
2023-04-07T18:27:05.280Z,63.19
2023-04-07T18:29:31.700Z,64.06
2023-04-07T18:31:58.065Z,63.65
2023-04-07T18:34:26.034Z,62.66
2023-04-07T18:36:53.623Z,61.94
2023-04-07T18:39:19.983Z,61.26
2023-04-07T18:41:48.110Z,61.23
2023-04-07T18:44:14.718Z,60.76
2023-04-07T18:46:41.313Z,61.04
2023-04-07T18:49:07.911Z,60.56
2023-04-07T18:51:34.586Z,61.92
2023-04-07T18:54:00.966Z,61.83
2023-04-07T18:56:28.355Z,62.63
2023-04-07T18:58:54.736Z,63.52
2023-04-07T19:01:21.600Z,63.50
2023-04-07T19:03:48.792Z,62.94
2023-04-07T19:06:16.345Z,63.22
2023-04-07T19:08:42.948Z,62.60
2023-04-07T19:11:10.068Z,62.39
2023-04-07T19:13:36.474Z,61.87
2023-04-07T19:16:03.320Z,61.57
2023-04-07T19:18:31.583Z,60.94
2023-04-07T19:20:58.009Z,60.76
2023-04-07T19:23:24.362Z,60.72
2023-04-07T19:25:50.765Z,60.48
2023-04-07T19:28:17.184Z,61.20
2023-04-07T19:30:43.558Z,60.96
2023-04-07T19:33:10.094Z,61.32
2023-04-07T19:35:38.797Z,60.95
2023-04-07T19:38:06.803Z,60.93
2023-04-07T19:40:33.413Z,60.90
2023-04-07T19:43:00.362Z,60.86
2023-04-07T19:45:26.754Z,60.89
2023-04-07T19:47:53.858Z,60.97
2023-04-07T19:50:20.591Z,61.44
2023-04-07T19:52:47.122Z,62.37
2023-04-07T19:55:14.122Z,62.52
2023-04-07T19:57:41.090Z,63.67
2023-04-07T20:00:08.879Z,64.12
2023-04-07T20:02:38.325Z,64.59
2023-04-07T20:05:05.474Z,64.54
2023-04-07T20:07:31.972Z,65.17
2023-04-07T20:09:58.302Z,65.20
2023-04-07T20:12:24.750Z,65.32
2023-04-07T20:14:51.132Z,64.96
2023-04-07T20:17:17.462Z,64.84
2023-04-07T20:19:43.780Z,64.61
2023-04-07T20:22:10.368Z,65.19
2023-04-07T20:24:36.837Z,66.10
2023-04-07T20:27:03.290Z,66.39
2023-04-07T20:29:29.632Z,66.86
2023-04-07T20:31:56.005Z,66.52
2023-04-07T20:34:22.431Z,66.50
2023-04-07T20:36:49.178Z,66.52
2023-04-07T20:39:16.395Z,66.56
2023-04-07T20:41:44.908Z,65.67
2023-04-07T20:44:11.555Z,66.21
2023-04-07T20:46:38.117Z,66.80
2023-04-07T20:49:07.539Z,66.43
2023-04-07T20:51:36.511Z,65.54
2023-04-07T20:54:03.543Z,65.53
2023-04-07T20:56:30.134Z,67.39
2023-04-07T20:58:56.455Z,66.51
2023-04-07T21:01:22.893Z,66.01
2023-04-07T21:03:49.307Z,67.15
2023-04-07T21:06:16.092Z,67.19
2023-04-07T21:08:42.454Z,66.85
2023-04-07T21:11:08.844Z,66.82
2023-04-07T21:13:35.233Z,67.36
2023-04-07T21:16:03.687Z,67.39
2023-04-07T21:18:30.612Z,66.34
2023-04-07T21:20:57.615Z,65.76
2023-04-07T21:23:24.052Z,65.63
2023-04-07T21:25:50.435Z,65.49
2023-04-07T21:28:16.788Z,65.84
2023-04-07T21:30:43.110Z,66.09
2023-04-07T21:33:09.715Z,65.63
2023-04-07T21:35:36.123Z,65.47
2023-04-07T21:38:02.530Z,65.69
2023-04-07T21:40:28.870Z,66.65
2023-04-07T21:42:55.467Z,66.84
2023-04-07T21:45:21.823Z,67.13
2023-04-07T21:47:48.196Z,66.59
2023-04-07T21:50:14.623Z,66.58
2023-04-07T21:52:42.347Z,66.98
2023-04-07T21:55:10.626Z,67.05
2023-04-07T21:57:37.035Z,67.03
2023-04-07T22:00:04.089Z,66.24
2023-04-07T22:02:30.660Z,65.36
2023-04-07T22:04:57.181Z,64.72
2023-04-07T22:07:23.508Z,65.04
2023-04-07T22:09:49.817Z,65.29
2023-04-07T22:12:16.249Z,65.79
2023-04-07T22:14:45.053Z,65.89
2023-04-07T22:17:11.646Z,65.46
2023-04-07T22:19:37.985Z,65.44
2023-04-07T22:22:04.487Z,65.58
2023-04-07T22:24:30.827Z,65.09
2023-04-07T22:26:57.270Z,64.79
2023-04-07T22:29:23.665Z,64.28
2023-04-07T22:31:50.093Z,63.99
2023-04-07T22:34:16.437Z,63.73
2023-04-07T22:36:42.768Z,63.34
2023-04-07T22:39:09.126Z,63.66
2023-04-07T22:41:35.485Z,63.30
2023-04-07T22:44:01.837Z,63.35
2023-04-07T22:46:28.248Z,63.90
2023-04-07T22:48:54.598Z,63.73
2023-04-07T22:51:20.966Z,63.62
2023-04-07T22:53:47.882Z,63.63
2023-04-07T22:56:14.262Z,63.21
2023-04-07T22:58:40.879Z,63.35
2023-04-07T23:01:07.577Z,63.10
2023-04-07T23:03:33.976Z,63.68
2023-04-07T23:06:01.437Z,63.31
2023-04-07T23:08:27.818Z,63.24
2023-04-07T23:10:54.153Z,63.30
2023-04-07T23:13:20.596Z,63.44
2023-04-07T23:15:46.966Z,62.97
2023-04-07T23:18:13.328Z,63.24
2023-04-07T23:20:39.860Z,63.61
2023-04-07T23:23:06.209Z,63.63
2023-04-07T23:25:32.772Z,63.44
2023-04-07T23:27:59.145Z,63.26
2023-04-07T23:30:25.492Z,63.20
2023-04-07T23:32:52.035Z,63.27
2023-04-07T23:35:18.543Z,64.00
2023-04-07T23:37:44.995Z,64.37
2023-04-07T23:40:12.407Z,64.26
2023-04-07T23:42:38.759Z,63.84
2023-04-07T23:45:05.693Z,63.87
2023-04-07T23:47:32.033Z,63.97
2023-04-07T23:49:58.703Z,63.89
2023-04-07T23:52:25.718Z,63.83
2023-04-07T23:54:52.125Z,65.52
2023-04-07T23:57:18.571Z,65.80
2023-04-07T23:59:44.925Z,65.67
